createdAt,value
2018-05-09T00:00:25.780Z,96.42
2018-05-09T00:01:25.785Z,94.02
2018-05-09T00:02:25.793Z,93.02
2018-05-09T00:03:25.985Z,96.66
2018-05-09T00:04:25.781Z,97.85
2018-05-09T00:05:25.783Z,95.65
2018-05-09T00:06:25.984Z,95.84
2018-05-09T00:07:25.783Z,95.75
2018-05-09T00:08:25.796Z,94.65
2018-05-09T00:09:25.801Z,95.56
2018-05-09T00:10:25.796Z,95.41
2018-05-09T00:11:25.779Z,95.56
2018-05-09T00:12:25.781Z,93.98
2018-05-09T00:13:25.792Z,94.74
2018-05-09T00:14:25.983Z,94.74
2018-05-09T00:15:25.780Z,94.26
2018-05-09T00:16:25.800Z,95.31
2018-05-09T00:17:25.986Z,97.61
2018-05-09T00:18:25.795Z,95.61
2018-05-09T00:19:25.797Z,95.70
2018-05-09T00:20:25.793Z,97.23
2018-05-09T00:21:25.999Z,96.08
2018-05-09T00:22:25.986Z,94.26
2018-05-09T00:23:25.776Z,93.88
2018-05-09T00:24:25.982Z,94.84
2018-05-09T00:25:25.778Z,94.60
2018-05-09T00:26:25.783Z,95.65
2018-05-09T00:27:25.787Z,96.42
2018-05-09T00:28:25.787Z,97.18
2018-05-09T00:29:25.784Z,97.08
2018-05-09T00:30:25.997Z,97.85
2018-05-09T00:31:25.776Z,97.52
2018-05-09T00:32:25.980Z,98.85
2018-05-09T00:33:25.780Z,99.99
2018-05-09T00:34:25.992Z,98.75
2018-05-09T00:35:25.803Z,99.99
2018-05-09T00:36:25.775Z,99.99
2018-05-09T00:37:25.786Z,99.99
2018-05-09T00:38:25.784Z,99.99
2018-05-09T00:39:26.006Z,99.99
2018-05-09T00:40:25.785Z,99.99
2018-05-09T00:41:25.795Z,99.99
2018-05-09T00:42:25.798Z,99.99
2018-05-09T00:43:25.784Z,99.99
2018-05-09T00:44:25.784Z,99.99
2018-05-09T00:45:25.786Z,99.99
2018-05-09T00:46:25.983Z,99.99
2018-05-09T00:47:25.797Z,99.99
2018-05-09T00:48:25.769Z,99.99
2018-05-09T00:49:25.974Z,99.99
2018-05-09T00:50:25.781Z,99.99
2018-05-09T00:51:25.777Z,99.99
2018-05-09T00:52:25.765Z,99.99
2018-05-09T00:53:25.778Z,99.99
2018-05-09T00:54:25.767Z,99.99
2018-05-09T00:55:25.969Z,99.99
2018-05-09T00:56:25.766Z,99.99
2018-05-09T00:57:25.763Z,99.99
2018-05-09T00:58:25.765Z,99.99
2018-05-09T00:59:25.764Z,99.99
2018-05-09T01:00:25.771Z,99.99
2018-05-09T01:01:25.965Z,99.99
2018-05-09T01:02:25.762Z,99.99
2018-05-09T01:03:25.974Z,99.99
2018-05-09T01:04:25.772Z,99.99
2018-05-09T01:05:25.759Z,99.99
2018-05-09T01:06:25.966Z,99.99
2018-05-09T01:07:25.768Z,99.99
2018-05-09T01:08:25.965Z,99.99
2018-05-09T01:09:25.783Z,99.99
2018-05-09T01:10:25.766Z,99.99
2018-05-09T01:11:25.959Z,99.99
2018-05-09T01:12:25.751Z,99.99
2018-05-09T01:13:25.985Z,99.99
2018-05-09T01:14:25.757Z,99.99
2018-05-09T01:15:25.751Z,99.99
2018-05-09T01:16:25.770Z,99.99
2018-05-09T01:17:25.963Z,99.99
2018-05-09T01:18:25.955Z,99.99
2018-05-09T01:19:25.961Z,99.99
2018-05-09T01:20:25.952Z,99.99
2018-05-09T01:21:25.746Z,99.99
2018-05-09T01:22:25.748Z,99.99
2018-05-09T01:23:25.750Z,99.99
2018-05-09T01:24:25.757Z,99.99
2018-05-09T01:25:25.944Z,99.99
2018-05-09T01:26:25.743Z,99.99
2018-05-09T01:27:25.953Z,99.99
2018-05-09T01:28:25.746Z,99.99
2018-05-09T01:29:25.735Z,99.99
2018-05-09T01:30:25.737Z,99.99
2018-05-09T01:31:25.742Z,99.99
2018-05-09T01:32:25.735Z,99.99
2018-05-09T01:33:25.754Z,99.99
2018-05-09T01:34:25.742Z,99.99
2018-05-09T01:35:25.727Z,99.99
2018-05-09T01:36:25.737Z,99.99
2018-05-09T01:37:25.945Z,99.99
2018-05-09T01:38:25.738Z,99.99
2018-05-09T01:39:25.724Z,99.99
2018-05-09T01:40:25.732Z,99.99
2018-05-09T01:41:25.926Z,99.99
2018-05-09T01:42:25.722Z,99.99
2018-05-09T01:43:25.927Z,99.99
2018-05-09T01:44:25.921Z,99.99
2018-05-09T01:45:25.923Z,99.99
2018-05-09T01:46:25.941Z,99.99
2018-05-09T01:47:25.919Z,99.99
2018-05-09T01:48:25.714Z,99.99
2018-05-09T01:49:25.927Z,99.99
2018-05-09T01:50:25.712Z,99.99
2018-05-09T01:51:25.724Z,99.99
2018-05-09T01:52:25.709Z,99.99
2018-05-09T01:53:25.912Z,99.99
2018-05-09T01:54:25.711Z,99.99
2018-05-09T01:55:25.920Z,99.99
2018-05-09T01:56:25.701Z,99.99
2018-05-09T01:57:25.725Z,99.99
2018-05-09T01:58:25.703Z,99.99
2018-05-09T01:59:25.718Z,99.99
2018-05-09T02:00:25.707Z,99.99
2018-05-09T02:01:25.695Z,99.99
2018-05-09T02:02:25.709Z,99.99
2018-05-09T02:03:25.694Z,99.99
2018-05-09T02:04:25.753Z,99.99
2018-05-09T02:05:25.695Z,99.99
2018-05-09T02:06:25.893Z,99.99
2018-05-09T02:07:25.698Z,99.99
2018-05-09T02:08:25.685Z,99.99
2018-05-09T02:09:25.708Z,99.99
2018-05-09T02:10:25.689Z,99.99
2018-05-09T02:11:25.697Z,99.99
2018-05-09T02:12:25.689Z,99.99
2018-05-09T02:13:25.885Z,99.99
2018-05-09T02:14:25.706Z,99.99
2018-05-09T02:15:25.689Z,99.99
2018-05-09T02:16:25.673Z,99.99
2018-05-09T02:17:25.674Z,99.99
2018-05-09T02:18:25.697Z,99.99
2018-05-09T02:19:25.670Z,99.99
2018-05-09T02:20:25.682Z,99.99
2018-05-09T02:21:25.885Z,99.99
2018-05-09T02:22:25.678Z,99.99
2018-05-09T02:23:25.676Z,99.99
2018-05-09T02:24:25.865Z,99.99
2018-05-09T02:25:25.864Z,99.99
2018-05-09T02:26:25.683Z,99.99
2018-05-09T02:27:25.860Z,99.99
2018-05-09T02:28:25.657Z,99.99
2018-05-09T02:29:25.656Z,99.99
2018-05-09T02:30:25.653Z,99.99
2018-05-09T02:31:25.653Z,99.99
2018-05-09T02:32:25.852Z,99.99
2018-05-09T02:33:25.647Z,99.99
2018-05-09T02:34:25.648Z,99.99
2018-05-09T02:35:25.660Z,99.99
2018-05-09T02:36:25.654Z,99.99
2018-05-09T02:37:25.847Z,99.99
2018-05-09T02:38:25.640Z,99.99
2018-05-09T02:39:25.664Z,99.99
2018-05-09T02:40:25.647Z,99.99
2018-05-09T02:41:25.636Z,99.99
2018-05-09T02:42:25.838Z,99.99
2018-05-09T02:43:25.642Z,99.99
2018-05-09T02:44:25.629Z,99.99
2018-05-09T02:45:25.660Z,99.99
2018-05-09T02:46:25.631Z,99.99
2018-05-09T02:47:25.634Z,99.99
2018-05-09T02:48:25.637Z,99.99
2018-05-09T02:49:25.624Z,99.99
2018-05-09T02:50:25.634Z,99.99
2018-05-09T02:51:25.627Z,99.99
2018-05-09T02:52:25.623Z,99.99
2018-05-09T02:53:25.820Z,99.99
2018-05-09T02:54:25.621Z,99.99
2018-05-09T02:55:25.613Z,99.99
2018-05-09T02:56:25.608Z,99.99
2018-05-09T02:57:25.911Z,99.99
2018-05-09T02:58:25.607Z,99.99
2018-05-09T02:59:25.616Z,99.99
2018-05-09T03:00:25.605Z,99.99
2018-05-09T03:01:25.612Z,99.99
2018-05-09T03:02:26.056Z,99.99
2018-05-09T03:03:25.601Z,99.99
2018-05-09T03:04:25.603Z,99.99
2018-05-09T03:05:25.597Z,99.99
2018-05-09T03:06:25.806Z,99.99
2018-05-09T03:07:25.600Z,99.99
2018-05-09T03:08:25.587Z,99.99
2018-05-09T03:09:25.586Z,99.99
2018-05-09T03:10:25.790Z,99.99
2018-05-09T03:11:25.589Z,99.99
2018-05-09T03:12:25.799Z,99.99
2018-05-09T03:13:25.593Z,99.99
2018-05-09T03:14:25.792Z,99.99
2018-05-09T03:15:25.588Z,99.99
2018-05-09T03:16:25.586Z,99.99
2018-05-09T03:17:25.578Z,99.99
2018-05-09T03:18:25.593Z,99.99
2018-05-09T03:19:25.588Z,99.99
2018-05-09T03:20:25.581Z,99.99
2018-05-09T03:21:25.564Z,99.99
2018-05-09T03:22:25.579Z,99.99
2018-05-09T03:23:25.763Z,99.99
2018-05-09T03:24:25.557Z,99.99
2018-05-09T03:25:25.573Z,99.99
2018-05-09T03:26:25.555Z,99.99
2018-05-09T03:27:25.565Z,99.99
2018-05-09T03:28:25.559Z,99.99
2018-05-09T03:29:25.617Z,99.99
2018-05-09T03:30:25.545Z,99.99
2018-05-09T03:31:25.543Z,99.99
2018-05-09T03:32:25.541Z,99.99
2018-05-09T03:33:25.540Z,99.99
2018-05-09T03:34:25.539Z,99.99
2018-05-09T03:35:25.547Z,99.99
2018-05-09T03:36:25.737Z,99.99
2018-05-09T03:37:25.807Z,99.99
2018-05-09T03:38:25.544Z,99.99
2018-05-09T03:39:25.528Z,99.99
2018-05-09T03:40:25.539Z,99.99
2018-05-09T03:41:25.733Z,99.99
2018-05-09T03:42:25.525Z,99.99
2018-05-09T03:43:25.535Z,99.99
2018-05-09T03:44:25.533Z,99.99
2018-05-09T03:45:25.517Z,99.99
2018-05-09T03:46:25.516Z,99.99
2018-05-09T03:47:25.524Z,99.99
2018-05-09T03:48:25.714Z,99.99
2018-05-09T03:49:25.727Z,99.99
2018-05-09T03:50:25.722Z,99.99
2018-05-09T03:51:25.503Z,99.99
2018-05-09T03:52:25.506Z,99.99
2018-05-09T03:53:25.504Z,99.99
2018-05-09T03:54:25.705Z,99.99
2018-05-09T03:55:25.500Z,99.99
2018-05-09T03:56:25.493Z,99.99
2018-05-09T03:57:25.492Z,99.99
2018-05-09T03:58:25.696Z,99.99
2018-05-09T03:59:25.577Z,99.99
2018-05-09T04:00:25.483Z,99.99
2018-05-09T04:01:25.499Z,99.99
2018-05-09T04:02:25.689Z,99.99
2018-05-09T04:03:25.493Z,99.99
2018-05-09T04:04:25.682Z,99.99
2018-05-09T04:05:25.477Z,99.99
2018-05-09T04:06:25.484Z,99.99
2018-05-09T04:07:25.481Z,99.99
2018-05-09T04:08:25.676Z,99.99
2018-05-09T04:09:25.517Z,99.99
2018-05-09T04:10:25.467Z,99.99
2018-05-09T04:11:25.474Z,99.99
2018-05-09T04:12:25.473Z,99.99
2018-05-09T04:13:25.472Z,99.99
2018-05-09T04:14:25.455Z,99.99
2018-05-09T04:15:25.661Z,99.99
2018-05-09T04:16:25.453Z,99.99
2018-05-09T04:17:25.451Z,99.99
2018-05-09T04:18:25.661Z,99.99
2018-05-09T04:19:25.464Z,99.99
2018-05-09T04:20:25.648Z,99.99
2018-05-09T04:21:25.669Z,99.99
2018-05-09T04:22:25.442Z,99.99
2018-05-09T04:23:25.434Z,99.99
2018-05-09T04:24:25.653Z,99.99
2018-05-09T04:25:25.437Z,99.99
2018-05-09T04:26:25.636Z,99.99
2018-05-09T04:27:25.433Z,99.99
2018-05-09T04:28:25.644Z,99.99
2018-05-09T04:29:25.440Z,99.99
2018-05-09T04:30:25.422Z,99.99
2018-05-09T04:31:25.418Z,99.99
2018-05-09T04:32:25.417Z,99.99
2018-05-09T04:33:25.425Z,99.99
2018-05-09T04:34:25.416Z,99.99
2018-05-09T04:35:25.411Z,99.99
2018-05-09T04:36:25.409Z,99.99
2018-05-09T04:37:25.409Z,99.99
2018-05-09T04:38:25.404Z,99.99
2018-05-09T04:39:25.405Z,99.99
2018-05-09T04:40:25.401Z,99.99
2018-05-09T04:41:25.606Z,99.99
2018-05-09T04:42:25.615Z,99.99
2018-05-09T04:43:25.391Z,99.99
2018-05-09T04:44:25.440Z,99.99
2018-05-09T04:45:25.401Z,99.99
2018-05-09T04:46:25.603Z,99.99
2018-05-09T04:47:25.383Z,99.99
2018-05-09T04:48:25.387Z,99.99
2018-05-09T04:49:25.386Z,99.99
2018-05-09T04:50:25.392Z,99.99
2018-05-09T04:51:25.609Z,99.99
2018-05-09T04:52:25.578Z,99.99
2018-05-09T04:53:25.584Z,99.99
2018-05-09T04:54:25.380Z,99.99
2018-05-09T04:55:25.488Z,99.99
2018-05-09T04:56:25.361Z,99.99
2018-05-09T04:57:25.365Z,99.99
2018-05-09T04:58:25.369Z,99.99
2018-05-09T04:59:25.395Z,99.99
2018-05-09T05:00:25.358Z,99.99
2018-05-09T05:01:25.355Z,99.99
2018-05-09T05:02:25.353Z,99.99
2018-05-09T05:03:25.552Z,99.99
2018-05-09T05:04:25.356Z,99.99
2018-05-09T05:05:25.358Z,99.99
2018-05-09T05:06:25.340Z,99.99
2018-05-09T05:07:25.340Z,99.99
2018-05-09T05:08:25.539Z,99.99
2018-05-09T05:09:25.585Z,99.99
2018-05-09T05:10:25.541Z,99.99
2018-05-09T05:11:25.330Z,99.99
2018-05-09T05:12:25.328Z,99.99
2018-05-09T05:13:25.331Z,99.99
2018-05-09T05:14:25.337Z,99.99
2018-05-09T05:15:25.323Z,99.99
2018-05-09T05:16:25.334Z,99.99
2018-05-09T05:17:25.331Z,99.99
2018-05-09T05:18:25.317Z,99.99
2018-05-09T05:19:25.313Z,99.99
2018-05-09T05:20:25.322Z,99.99
2018-05-09T05:21:25.311Z,99.99
2018-05-09T05:22:25.311Z,99.99
2018-05-09T05:23:25.523Z,99.99
2018-05-09T05:24:25.524Z,99.99
2018-05-09T05:25:25.319Z,99.99
2018-05-09T05:26:25.305Z,99.99
2018-05-09T05:27:25.312Z,99.99
2018-05-09T05:28:25.297Z,99.99
2018-05-09T05:29:25.501Z,99.99
2018-05-09T05:30:25.513Z,99.99
2018-05-09T05:31:25.297Z,99.99
2018-05-09T05:32:25.296Z,99.99
2018-05-09T05:33:25.311Z,99.99
2018-05-09T05:34:25.299Z,99.99
2018-05-09T05:35:25.299Z,99.99
2018-05-09T05:36:25.299Z,99.99
2018-05-09T05:37:25.311Z,99.99
2018-05-09T05:38:25.497Z,99.99
2018-05-09T05:39:25.308Z,99.99
2018-05-09T05:40:25.296Z,99.99
2018-05-09T05:41:25.482Z,99.99
2018-05-09T05:42:25.278Z,99.99
2018-05-09T05:43:25.286Z,99.99
2018-05-09T05:44:25.272Z,99.99
2018-05-09T05:45:25.496Z,99.99
2018-05-09T05:46:25.273Z,99.99
2018-05-09T05:47:25.269Z,99.99
2018-05-09T05:48:25.277Z,99.99
2018-05-09T05:49:25.287Z,99.99
2018-05-09T05:50:25.264Z,99.99
2018-05-09T05:51:25.261Z,99.99
2018-05-09T05:52:25.260Z,99.99
2018-05-09T05:53:25.260Z,99.99
2018-05-09T05:54:25.271Z,99.99
2018-05-09T05:55:25.259Z,99.99
2018-05-09T05:56:25.257Z,99.99
2018-05-09T05:57:25.268Z,99.99
2018-05-09T05:58:25.268Z,99.99
2018-05-09T05:59:25.259Z,99.99
2018-05-09T06:00:25.454Z,99.99
2018-05-09T06:01:25.263Z,99.99
2018-05-09T06:02:25.250Z,99.99
2018-05-09T06:03:25.252Z,99.99
2018-05-09T06:04:25.259Z,99.99
2018-05-09T06:05:25.247Z,99.99
2018-05-09T06:06:25.269Z,99.99
2018-05-09T06:07:25.257Z,99.99
2018-05-09T06:08:25.252Z,99.99
2018-05-09T06:09:25.243Z,99.99
2018-05-09T06:10:25.478Z,99.99
2018-05-09T06:11:25.446Z,99.99
2018-05-09T06:12:25.252Z,99.99
2018-05-09T06:13:25.248Z,99.99
2018-05-09T06:14:25.248Z,99.99
2018-05-09T06:15:25.451Z,99.99
2018-05-09T06:16:25.237Z,99.99
2018-05-09T06:17:25.252Z,99.99
2018-05-09T06:18:25.260Z,99.99
2018-05-09T06:19:25.247Z,99.99
2018-05-09T06:20:25.236Z,99.99
2018-05-09T06:21:25.235Z,99.99
2018-05-09T06:22:25.248Z,99.99
2018-05-09T06:23:25.229Z,99.99
2018-05-09T06:24:25.444Z,99.99
2018-05-09T06:25:25.245Z,99.99
2018-05-09T06:26:25.443Z,99.99
2018-05-09T06:27:25.231Z,99.99
2018-05-09T06:28:25.228Z,99.99
2018-05-09T06:29:25.231Z,99.99
2018-05-09T06:30:25.230Z,99.99
2018-05-09T06:31:25.225Z,99.99
2018-05-09T06:32:25.233Z,99.99
2018-05-09T06:33:25.223Z,99.99
2018-05-09T06:34:25.430Z,99.99
2018-05-09T06:35:25.426Z,99.99
2018-05-09T06:36:25.225Z,99.99
2018-05-09T06:37:25.221Z,99.99
2018-05-09T06:38:25.448Z,99.99
2018-05-09T06:39:25.241Z,99.99
2018-05-09T06:40:25.427Z,99.99
2018-05-09T06:41:25.224Z,99.99
2018-05-09T06:42:25.436Z,99.99
2018-05-09T06:43:25.229Z,99.99
2018-05-09T06:44:25.221Z,99.99
2018-05-09T06:45:25.232Z,99.99
2018-05-09T06:46:25.224Z,99.99
2018-05-09T06:47:25.426Z,99.99
2018-05-09T06:48:25.229Z,99.99
2018-05-09T06:49:25.230Z,99.99
2018-05-09T06:50:25.219Z,99.99
2018-05-09T06:51:25.221Z,99.99
2018-05-09T06:52:25.422Z,99.99
2018-05-09T06:53:25.419Z,99.99
2018-05-09T06:54:25.229Z,99.99
2018-05-09T06:55:25.217Z,99.99
2018-05-09T06:56:25.218Z,99.99
2018-05-09T06:57:25.221Z,99.99
2018-05-09T06:58:25.221Z,99.99
2018-05-09T06:59:25.432Z,99.99
2018-05-09T07:00:25.233Z,99.99
2018-05-09T07:01:25.426Z,99.99
2018-05-09T07:02:25.245Z,99.99
2018-05-09T07:03:25.217Z,99.99
2018-05-09T07:04:25.230Z,99.99
2018-05-09T07:05:25.245Z,99.99
2018-05-09T07:06:25.455Z,99.99
2018-05-09T07:07:25.224Z,99.99
2018-05-09T07:08:25.424Z,99.99
2018-05-09T07:09:25.230Z,99.99
2018-05-09T07:10:25.216Z,99.99
2018-05-09T07:11:25.223Z,99.99
2018-05-09T07:12:25.229Z,99.99
2018-05-09T07:13:25.436Z,99.99
2018-05-09T07:14:25.219Z,99.99
2018-05-09T07:15:25.424Z,96.37
2018-05-09T07:16:25.425Z,94.88
2018-05-09T07:17:25.222Z,92.91
2018-05-09T07:18:25.223Z,94.83
2018-05-09T07:19:25.221Z,95.60
2018-05-09T07:20:25.435Z,97.33
2018-05-09T07:21:25.429Z,94.78
2018-05-09T07:22:25.249Z,88.62
2018-05-09T07:23:25.429Z,88.47
2018-05-09T07:24:25.445Z,87.17
2018-05-09T07:25:25.230Z,84.80
2018-05-09T07:26:25.246Z,83.69
2018-05-09T07:27:25.230Z,80.45
2018-05-09T07:28:25.232Z,76.92
2018-05-09T07:29:25.459Z,75.45
2018-05-09T07:30:25.249Z,75.74
2018-05-09T07:31:25.241Z,75.20
2018-05-09T07:32:25.241Z,73.74
2018-05-09T07:33:25.444Z,72.14
2018-05-09T07:34:25.243Z,68.37
2018-05-09T07:35:25.488Z,68.56
2018-05-09T07:36:25.250Z,69.53
2018-05-09T07:37:25.249Z,71.94
2018-05-09T07:38:25.262Z,72.49
2018-05-09T07:39:25.464Z,73.90
2018-05-09T07:40:25.466Z,72.36
2018-05-09T07:41:25.458Z,72.52
2018-05-09T07:42:25.258Z,76.82
2018-05-09T07:43:25.271Z,77.50
2018-05-09T07:44:25.484Z,75.05
2018-05-09T07:45:25.262Z,77.46
2018-05-09T07:46:25.264Z,81.37
2018-05-09T07:47:25.467Z,79.39
2018-05-09T07:48:25.471Z,74.95
2018-05-09T07:49:25.274Z,77.17
2018-05-09T07:50:25.275Z,75.34
2018-05-09T07:51:25.286Z,75.53
2018-05-09T07:52:25.287Z,76.98
2018-05-09T07:53:25.274Z,80.35
2018-05-09T07:54:25.491Z,79.00
2018-05-09T07:55:25.338Z,79.10
2018-05-09T07:56:25.280Z,76.93
2018-05-09T07:57:25.302Z,77.67
2018-05-09T07:58:25.283Z,78.92
2018-05-09T07:59:25.535Z,80.76
2018-05-09T08:00:25.302Z,84.03
2018-05-09T08:01:25.302Z,84.47
2018-05-09T08:02:25.291Z,84.76
2018-05-09T08:03:25.290Z,85.43
2018-05-09T08:04:25.313Z,84.86
2018-05-09T08:05:25.502Z,83.80
2018-05-09T08:06:25.306Z,87.07
2018-05-09T08:07:25.295Z,83.89
2018-05-09T08:08:25.308Z,84.76
2018-05-09T08:09:25.308Z,82.74
2018-05-09T08:10:25.316Z,82.74
2018-05-09T08:11:25.515Z,84.56
2018-05-09T08:12:25.506Z,83.51
2018-05-09T08:13:25.331Z,83.22
2018-05-09T08:14:25.319Z,85.05
2018-05-09T08:15:25.313Z,82.45
2018-05-09T08:16:25.310Z,83.07
2018-05-09T08:17:25.341Z,78.63
2018-05-09T08:18:25.326Z,76.80
2018-05-09T08:19:25.333Z,77.38
2018-05-09T08:20:25.319Z,80.37
2018-05-09T08:21:25.340Z,80.76
2018-05-09T08:22:25.331Z,76.61
2018-05-09T08:23:25.335Z,76.42
2018-05-09T08:24:25.327Z,73.75
2018-05-09T08:25:25.545Z,72.34
2018-05-09T08:26:25.332Z,71.32
2018-05-09T08:27:25.343Z,70.00
2018-05-09T08:28:25.535Z,71.64
2018-05-09T08:29:25.539Z,72.13
2018-05-09T08:30:25.622Z,66.27
2018-05-09T08:31:25.337Z,65.69
2018-05-09T08:32:25.351Z,66.59
2018-05-09T08:33:25.343Z,65.43
2018-05-09T08:34:25.365Z,64.11
2018-05-09T08:35:25.351Z,65.56
2018-05-09T08:36:25.372Z,66.24
2018-05-09T08:37:25.354Z,65.27
2018-05-09T08:38:25.369Z,65.56
2018-05-09T08:39:25.353Z,62.47
2018-05-09T08:40:25.372Z,65.37
2018-05-09T08:41:25.362Z,63.66
2018-05-09T08:42:25.562Z,64.24
2018-05-09T08:43:25.453Z,64.98
2018-05-09T08:44:25.400Z,66.05
2018-05-09T08:45:25.378Z,68.75
2018-05-09T08:46:25.370Z,66.14
2018-05-09T08:47:25.386Z,63.92
2018-05-09T08:48:25.391Z,64.21
2018-05-09T08:49:25.524Z,63.73
2018-05-09T08:50:25.591Z,65.47
2018-05-09T08:51:25.379Z,62.69
2018-05-09T08:52:25.382Z,61.08
2018-05-09T08:53:25.383Z,63.40
2018-05-09T08:54:25.406Z,63.79
2018-05-09T08:55:25.495Z,61.85
2018-05-09T08:56:25.395Z,60.40
2018-05-09T08:57:25.394Z,60.50
2018-05-09T08:58:25.396Z,61.66
2018-05-09T08:59:25.411Z,59.91
2018-05-09T09:00:25.402Z,64.17
2018-05-09T09:01:25.413Z,66.85
2018-05-09T09:02:25.609Z,64.79
2018-05-09T09:03:25.622Z,67.11
2018-05-09T09:04:25.463Z,65.95
2018-05-09T09:05:25.413Z,66.14
2018-05-09T09:06:25.489Z,67.94
2018-05-09T09:07:25.415Z,68.82
2018-05-09T09:08:25.619Z,68.24
2018-05-09T09:09:25.658Z,68.33
2018-05-09T09:10:25.420Z,70.65
2018-05-09T09:11:25.628Z,68.40
2018-05-09T09:12:25.440Z,69.46
2018-05-09T09:13:25.441Z,69.36
2018-05-09T09:14:25.430Z,66.11
2018-05-09T09:15:25.555Z,67.17
2018-05-09T09:16:25.436Z,68.91
2018-05-09T09:17:25.640Z,68.68
2018-05-09T09:18:25.657Z,68.14
2018-05-09T09:19:25.673Z,67.27
2018-05-09T09:20:25.453Z,66.14
2018-05-09T09:21:25.458Z,65.56
2018-05-09T09:22:25.664Z,68.56
2018-05-09T09:23:25.455Z,65.75
2018-05-09T09:24:25.455Z,65.66
2018-05-09T09:25:25.456Z,66.50
2018-05-09T09:26:25.457Z,66.59
2018-05-09T09:27:25.515Z,69.46
2018-05-09T09:28:25.665Z,71.30
2018-05-09T09:29:25.683Z,72.22
2018-05-09T09:30:25.467Z,73.77
2018-05-09T09:31:25.478Z,74.06
2018-05-09T09:32:25.479Z,71.51
2018-05-09T09:33:25.474Z,75.47
2018-05-09T09:34:25.484Z,75.37
2018-05-09T09:35:25.693Z,70.94
2018-05-09T09:36:25.479Z,69.81
2018-05-09T09:37:25.481Z,69.17
2018-05-09T09:38:25.482Z,68.40
2018-05-09T09:39:25.490Z,69.56
2018-05-09T09:40:25.496Z,69.74
2018-05-09T09:41:25.513Z,71.00
2018-05-09T09:42:25.493Z,71.30
2018-05-09T09:43:25.510Z,72.13
2018-05-09T09:44:25.541Z,74.25
2018-05-09T09:45:25.704Z,73.86
2018-05-09T09:46:25.500Z,76.37
2018-05-09T09:47:25.501Z,75.22
2018-05-09T09:48:25.520Z,75.47
2018-05-09T09:49:25.520Z,74.89
2018-05-09T09:50:25.729Z,74.12
2018-05-09T09:51:25.714Z,75.67
2018-05-09T09:52:25.515Z,72.58
2018-05-09T09:53:25.520Z,71.22
2018-05-09T09:54:25.587Z,75.95
2018-05-09T09:55:25.546Z,72.96
2018-05-09T09:56:25.742Z,72.15
2018-05-09T09:57:25.729Z,71.67
2018-05-09T09:58:25.528Z,73.66
2018-05-09T09:59:25.564Z,73.99
2018-05-09T10:00:25.735Z,73.85
2018-05-09T10:01:25.560Z,74.82
2018-05-09T10:02:25.536Z,73.08
2018-05-09T10:03:25.552Z,72.15
2018-05-09T10:04:25.547Z,72.25
2018-05-09T10:05:25.568Z,73.89
2018-05-09T10:06:25.557Z,75.34
2018-05-09T10:07:25.765Z,76.10
2018-05-09T10:08:25.549Z,72.19
2018-05-09T10:09:25.559Z,70.94
2018-05-09T10:10:25.567Z,71.22
2018-05-09T10:11:25.571Z,69.49
2018-05-09T10:12:25.558Z,70.90
2018-05-09T10:13:25.568Z,70.22
2018-05-09T10:14:25.569Z,71.67
2018-05-09T10:15:25.562Z,71.00
2018-05-09T10:16:25.578Z,71.67
2018-05-09T10:17:25.589Z,73.27
2018-05-09T10:18:25.786Z,72.54
2018-05-09T10:19:25.572Z,75.30
2018-05-09T10:20:25.575Z,77.42
2018-05-09T10:21:25.577Z,73.27
2018-05-09T10:22:25.781Z,74.91
2018-05-09T10:23:25.581Z,77.13
2018-05-09T10:24:25.583Z,77.61
2018-05-09T10:25:25.787Z,77.81
2018-05-09T10:26:25.611Z,76.07
2018-05-09T10:27:25.794Z,77.42
2018-05-09T10:28:25.590Z,78.29
2018-05-09T10:29:25.796Z,76.84
2018-05-09T10:30:25.593Z,75.34
2018-05-09T10:31:25.655Z,74.27
2018-05-09T10:32:25.599Z,72.63
2018-05-09T10:33:25.613Z,73.60
2018-05-09T10:34:25.603Z,76.10
2018-05-09T10:35:25.807Z,72.63
2018-05-09T10:36:25.621Z,76.59
2018-05-09T10:37:25.813Z,75.37
2018-05-09T10:38:25.608Z,70.68
2018-05-09T10:39:25.627Z,65.59
2018-05-09T10:40:25.627Z,63.11
2018-05-09T10:41:25.834Z,60.63
2018-05-09T10:42:25.630Z,58.53
2018-05-09T10:43:25.630Z,59.01
2018-05-09T10:44:25.639Z,62.21
2018-05-09T10:45:25.669Z,64.21
2018-05-09T10:46:25.641Z,63.69
2018-05-09T10:47:25.844Z,60.72
2018-05-09T10:48:25.633Z,61.69
2018-05-09T10:49:25.640Z,60.95
2018-05-09T10:50:25.641Z,60.98
2018-05-09T10:51:25.639Z,60.40
2018-05-09T10:52:25.650Z,60.59
2018-05-09T10:53:25.655Z,63.08
2018-05-09T10:54:25.658Z,59.66
2018-05-09T10:55:25.651Z,61.11
2018-05-09T10:56:25.651Z,61.57
2018-05-09T10:57:25.654Z,62.27
2018-05-09T10:58:25.668Z,60.24
2018-05-09T10:59:25.659Z,59.89
2018-05-09T11:00:25.667Z,59.50
2018-05-09T11:01:25.877Z,59.28
2018-05-09T11:02:25.676Z,60.44
2018-05-09T11:03:25.665Z,61.37
2018-05-09T11:04:25.704Z,61.27
2018-05-09T11:05:25.687Z,62.92
2018-05-09T11:06:25.684Z,61.98
2018-05-09T11:07:25.687Z,61.11
2018-05-09T11:08:25.686Z,62.95
2018-05-09T11:09:25.683Z,61.60
2018-05-09T11:10:25.760Z,60.72
2018-05-09T11:11:25.899Z,63.24
2018-05-09T11:12:25.697Z,63.63
2018-05-09T11:13:25.687Z,61.02
2018-05-09T11:14:25.718Z,60.72
2018-05-09T11:15:25.707Z,62.79
2018-05-09T11:16:25.698Z,61.05
2018-05-09T11:17:25.981Z,60.27
2018-05-09T11:18:25.715Z,60.98
2018-05-09T11:19:25.929Z,60.69
2018-05-09T11:20:25.909Z,61.66
2018-05-09T11:21:25.931Z,63.66
2018-05-09T11:22:25.727Z,62.30
2018-05-09T11:23:25.712Z,58.37
2018-05-09T11:24:25.964Z,57.88
2018-05-09T11:25:25.720Z,57.11
2018-05-09T11:26:25.925Z,57.14
2018-05-09T11:27:25.724Z,56.94
2018-05-09T11:28:25.942Z,56.94
2018-05-09T11:29:25.765Z,57.04
2018-05-09T11:30:25.731Z,59.17
2018-05-09T11:31:25.736Z,56.92
2018-05-09T11:32:25.740Z,57.04
2018-05-09T11:33:25.754Z,59.75
2018-05-09T11:34:25.757Z,60.04
2018-05-09T11:35:25.745Z,59.23
2018-05-09T11:36:25.749Z,60.27
2018-05-09T11:37:26.025Z,60.11
2018-05-09T11:38:25.779Z,60.60
2018-05-09T11:39:25.958Z,61.05
2018-05-09T11:40:25.761Z,62.21
2018-05-09T11:41:25.763Z,65.20
2018-05-09T11:42:25.763Z,67.52
2018-05-09T11:43:25.776Z,67.24
2018-05-09T11:44:25.776Z,65.95
2018-05-09T11:45:25.775Z,66.24
2018-05-09T11:46:25.980Z,64.21
2018-05-09T11:47:25.778Z,63.18
2018-05-09T11:48:25.787Z,59.38
2018-05-09T11:49:25.796Z,57.86
2018-05-09T11:50:25.787Z,57.66
2018-05-09T11:51:25.799Z,55.27
2018-05-09T11:52:26.006Z,59.50
2018-05-09T11:53:26.012Z,60.08
2018-05-09T11:54:25.820Z,57.08
2018-05-09T11:55:26.002Z,58.63
2018-05-09T11:56:25.801Z,55.43
2018-05-09T11:57:25.804Z,56.24
2018-05-09T11:58:25.819Z,59.43
2018-05-09T11:59:25.823Z,59.01
2018-05-09T12:00:25.815Z,59.69
2018-05-09T12:01:25.817Z,57.46
2018-05-09T12:02:25.907Z,54.49
2018-05-09T12:03:25.843Z,54.49
2018-05-09T12:04:25.832Z,52.95
2018-05-09T12:05:25.829Z,53.63
2018-05-09T12:06:25.833Z,53.23
2018-05-09T12:07:25.832Z,51.72
2018-05-09T12:08:25.840Z,55.49
2018-05-09T12:09:25.840Z,54.33
2018-05-09T12:10:25.895Z,52.68
2018-05-09T12:11:25.842Z,52.68
2018-05-09T12:12:25.845Z,51.23
2018-05-09T12:13:26.053Z,53.17
2018-05-09T12:14:25.871Z,51.74
2018-05-09T12:15:25.856Z,51.16
2018-05-09T12:16:26.075Z,54.71
2018-05-09T12:17:26.081Z,55.30
2018-05-09T12:18:25.873Z,54.59
2018-05-09T12:19:26.082Z,58.72
2018-05-09T12:20:25.869Z,54.27
2018-05-09T12:21:25.872Z,57.08
2018-05-09T12:22:25.874Z,55.07
2018-05-09T12:23:25.888Z,52.66
2018-05-09T12:24:25.882Z,50.52
2018-05-09T12:25:25.894Z,52.08
2018-05-09T12:26:25.914Z,49.17
2018-05-09T12:27:25.900Z,55.07
2018-05-09T12:28:26.106Z,55.92
2018-05-09T12:29:25.904Z,58.53
2018-05-09T12:30:26.150Z,61.50
2018-05-09T12:31:25.909Z,61.21
2018-05-09T12:32:25.917Z,56.67
2018-05-09T12:33:25.917Z,54.44
2018-05-09T12:34:25.909Z,52.22
2018-05-09T12:35:25.928Z,52.02
2018-05-09T12:36:26.171Z,51.76
2018-05-09T12:37:25.929Z,52.44
2018-05-09T12:38:25.932Z,52.34
2018-05-09T12:39:25.936Z,51.20
2018-05-09T12:40:26.143Z,50.92
2018-05-09T12:41:25.947Z,50.92
2018-05-09T12:42:26.021Z,49.46
2018-05-09T12:43:25.936Z,52.17
2018-05-09T12:44:25.936Z,54.30
2018-05-09T12:45:25.939Z,53.79
2018-05-09T12:46:25.943Z,52.08
2018-05-09T12:47:25.955Z,51.78
2018-05-09T12:48:25.966Z,52.75
2018-05-09T12:49:25.962Z,53.33
2018-05-09T12:50:25.956Z,51.30
2018-05-09T12:51:26.172Z,52.75
2018-05-09T12:52:25.963Z,56.24